Time;durP1;ratioP1;P1;durP2;ratioP2;P2;SDS_P1;SDS_P2;PMS_P1;PMS_P2;Temp;Humidity;BMP_temperature;BMP_pressure;BME280_temperature;BME280_humidity;BME280_pressure;Samples;Min_cycle;Max_cycle;Signal;HPM_P1;HPM_P2
2023/11/16 00:01:51;;;;;;;10.37;2.10;;;10.30;99.90;;;;;;6228487;23;20422;-87
2023/11/16 00:05:27;;;;;;;6.80;1.57;;;10.30;99.90;;;;;;6239892;23;20452;-86
2023/11/16 00:08:30;;;;;;;6.60;2.10;;;10.20;99.90;;;;;;6128267;23;20419;-88
2023/11/16 00:11:46;;;;;;;6.53;2.20;;;10.20;99.90;;;;;;6184137;23;20439;-86
2023/11/16 00:14:51;;;;;;;7.70;1.83;;;10.20;99.90;;;;;;6209440;23;20456;-86
2023/11/16 00:21:58;;;;;;;;;;;;;;;;;;;;;
2023/11/16 00:25:20;;;;;;;5.10;1.97;;;10.20;99.90;;;;;;6267254;23;20400;-86
2023/11/16 00:28:30;;;;;;;3.53;2.00;;;10.20;99.90;;;;;;6229063;23;20431;-87
2023/11/16 00:35:10;;;;;;;5.33;1.67;;;10.10;99.90;;;;;;6245147;23;20921;-88
2023/11/16 00:37:50;;;;;;;5.00;2.30;;;10.10;99.90;;;;;;6225222;23;20459;-84
2023/11/16 00:40:50;;;;;;;8.80;1.90;;;10.20;99.90;;;;;;6228176;23;20817;-86
2023/11/16 00:44:05;;;;;;;5.83;1.93;;;10.10;99.90;;;;;;6218021;23;20418;-88
2023/11/16 00:47:03;;;;;;;6.40;2.30;;;10.10;99.90;;;;;;6162068;23;20442;-86
2023/11/16 00:49:56;;;;;;;7.03;2.33;;;10.10;99.90;;;;;;6252194;23;20927;-87
2023/11/16 00:59:12;;;;;;;9.17;2.27;;;10.00;99.90;;;;;;6236093;23;20473;-85
2023/11/16 01:02:08;;;;;;;4.33;1.60;;;10.00;99.90;;;;;;6230919;23;20940;-85
2023/11/16 01:09:10;;;;;;;5.07;2.07;;;10.10;99.90;;;;;;6131144;23;20438;-83
2023/11/16 01:12:03;;;;;;;3.07;1.90;;;10.20;99.90;;;;;;6114815;23;20467;-83
2023/11/16 01:15:29;;;;;;;4.43;1.37;;;10.10;99.90;;;;;;6106004;23;20408;-83
2023/11/16 01:18:27;;;;;;;2.13;1.20;;;10.10;99.90;;;;;;5999403;23;20608;-88
2023/11/16 01:21:29;;;;;;;3.10;2.03;;;10.10;99.90;;;;;;6001689;23;20475;-88
2023/11/16 01:24:54;;;;;;;5.60;2.37;;;10.00;99.90;;;;;;6088560;23;20402;-86
2023/11/16 01:28:31;;;;;;;3.40;1.90;;;10.00;99.90;;;;;;6113172;23;20972;-87
2023/11/16 01:31:55;;;;;;;8.00;3.63;;;10.00;99.90;;;;;;6135959;23;20523;-86
2023/11/16 01:35:30;;;;;;;4.60;2.37;;;10.10;99.90;;;;;;6082764;23;20407;-84
2023/11/16 01:42:09;;;;;;;3.70;1.53;;;10.20;99.90;;;;;;6200484;23;20440;-86
2023/11/16 01:45:44;;;;;;;;;;;;;;;;;;;;;
2023/11/16 01:48:59;;;;;;;3.70;1.87;;;10.20;99.90;;;;;;6254805;23;20400;-86
2023/11/16 01:52:06;;;;;;;5.43;1.70;;;10.30;99.90;;;;;;6115744;23;20486;-88
2023/11/16 01:55:10;;;;;;;4.83;1.70;;;10.30;99.90;;;;;;6117770;23;20438;-87
2023/11/16 01:58:33;;;;;;;;;;;;;;;;;;;;;
2023/11/16 02:01:41;;;;;;;3.40;2.63;;;10.40;99.90;;;;;;6006250;23;20464;-87
2023/11/16 02:05:06;;;;;;;5.87;2.33;;;10.50;99.90;;;;;;6137006;23;20390;-87
2023/11/16 02:14:55;;;;;;;;;;;;;;;;;;;;;
2023/11/16 02:18:14;;;;;;;5.33;2.00;;;10.30;99.90;;;;;;6260414;23;21063;-87
2023/11/16 02:21:43;;;;;;;2.60;1.87;;;10.50;99.90;;;;;;6239168;23;20402;-86
2023/11/16 02:25:08;;;;;;;6.13;1.80;;;10.50;99.90;;;;;;6237036;23;20429;-87
2023/11/16 02:33:09;;;;;;;;;;;;;;;;;;;;;
2023/11/16 02:44:18;;;;;;;4.37;1.50;;;10.30;99.90;;;;;;6244771;22;20503;-84
2023/11/16 02:51:08;;;;;;;4.10;1.60;;;10.40;99.90;;;;;;6221629;22;20452;-87
2023/11/16 03:08:31;;;;;;;3.83;1.53;;;10.80;99.80;;;;;;6264633;22;20536;-86
2023/11/16 03:11:39;;;;;;;3.47;1.90;;;10.80;99.90;;;;;;6232714;23;20996;-87
2023/11/16 03:15:15;;;;;;;6.77;1.70;;;10.60;99.90;;;;;;6234135;23;20916;-86
2023/11/16 03:26:19;;;;;;;;;;;;;;;;;;;;;
2023/11/16 03:30:07;;;;;;;4.90;1.67;;;10.50;99.90;;;;;;6046698;23;20438;-88
2023/11/16 03:38:13;;;;;;;;;;;;;;;;;;;;;
2023/11/16 03:41:00;;;;;;;2.27;1.53;;;10.50;99.90;;;;;;5927065;24;20427;-86
2023/11/16 03:48:28;;;;;;;6.37;1.90;;;10.50;99.90;;;;;;5876962;24;20450;-88
2023/11/16 03:51:33;;;;;;;3.53;1.60;;;10.50;99.90;;;;;;5854074;24;20557;-88
2023/11/16 03:55:13;;;;;;;2.10;1.20;;;10.40;99.90;;;;;;5860760;24;20401;-88
2023/11/16 04:00:48;;;;;;;3.83;1.50;;;10.40;99.90;;;;;;6251940;22;20446;-86
2023/11/16 04:04:17;;;;;;;5.50;1.43;;;10.40;99.90;;;;;;6227768;23;20404;-86
2023/11/16 04:07:34;;;;;;;3.90;1.67;;;10.60;99.90;;;;;;6206246;22;20464;-87
2023/11/16 04:11:25;;;;;;;3.47;1.43;;;11.00;99.90;;;;;;6108909;23;20400;-86
2023/11/16 04:14:27;;;;;;;6.20;1.60;;;11.10;99.70;;;;;;6131701;23;20486;-86
2023/11/16 04:21:46;;;;;;;2.33;1.50;;;10.90;99.50;;;;;;6100220;23;20761;-87
2023/11/16 04:26:03;;;;;;;;;;;;;;;;;;;;;
2023/11/16 04:29:49;;;;;;;3.07;2.03;;;10.60;99.90;;;;;;6014358;23;20438;-87
2023/11/16 04:46:11;;;;;;;6.95;1.83;;;10.60;99.90;;;;;;5503373;22;19334730;-86
2023/11/16 04:49:18;;;;;;;5.50;1.90;;;10.60;99.90;;;;;;6262209;23;20168;-87
2023/11/16 04:53:01;;;;;;;7.50;2.20;;;10.50;99.90;;;;;;6206605;23;20544;-87
2023/11/16 04:56:12;;;;;;;6.10;1.80;;;10.50;99.90;;;;;;6114343;23;20418;-86
2023/11/16 05:03:08;;;;;;;7.17;2.40;;;10.70;99.90;;;;;;6077144;23;20448;-86
2023/11/16 05:17:26;;;;;;;;;;;;;;;;;;;;;
2023/11/16 05:20:56;;;;;;;;;;;;;;;;;;;;;
2023/11/16 05:24:07;;;;;;;3.27;2.03;;;10.40;99.90;;;;;;6164180;23;20385;-85
2023/11/16 05:27:16;;;;;;;4.40;2.60;;;10.40;99.90;;;;;;6205450;22;20476;-86
2023/11/16 05:33:56;;;;;;;5.60;2.17;;;10.40;99.90;;;;;;6102163;23;20435;-85
2023/11/16 05:41:12;;;;;;;;;;;;;;;;;;;;;
2023/11/16 05:44:27;;;;;;;;;;;;;;;;;;;;;
2023/11/16 05:48:00;;;;;;;;;;;;;;;;;;;;;
2023/11/16 05:54:17;;;;;;;9.00;2.67;;;10.50;99.90;;;;;;6220889;23;20389;-86
2023/11/16 05:57:52;;;;;;;8.70;2.40;;;10.60;99.70;;;;;;6155954;23;20438;-86
2023/11/16 06:08:16;;;;;;;;;;;;;;;;;;;;;
2023/11/16 06:22:33;;;;;;;4.33;2.27;;;10.40;99.80;;;;;;6001694;23;20439;-87
2023/11/16 06:25:42;;;;;;;;;;;;;;;;;;;;;
2023/11/16 06:29:37;;;;;;;8.33;2.40;;;10.50;99.90;;;;;;6148466;23;20728;-87
2023/11/16 06:40:25;;;;;;;5.43;2.40;;;10.70;98.50;;;;;;6229933;23;20476;-86
2023/11/16 06:43:33;;;;;;;6.93;2.20;;;10.60;98.70;;;;;;6163825;23;20405;-87
2023/11/16 06:46:39;;;;;;;4.93;2.77;;;10.60;99.00;;;;;;6200426;23;20986;-86
2023/11/16 06:50:00;;;;;;;6.60;2.57;;;10.70;99.00;;;;;;6076772;23;20443;-87
2023/11/16 06:53:03;;;;;;;7.73;2.67;;;10.60;98.90;;;;;;6077963;23;20970;-87
2023/11/16 06:56:03;;;;;;;11.93;4.30;;;10.70;99.00;;;;;;6000636;23;20537;-84
2023/11/16 07:03:35;;;;;;;4.63;2.90;;;10.60;98.90;;;;;;6016456;23;20435;-86
2023/11/16 07:17:49;;;;;;;8.30;3.23;;;10.50;99.10;;;;;;5898137;24;20428;-86
2023/11/16 07:28:32;;;;;;;;;;;;;;;;;;;;;
2023/11/16 07:31:53;;;;;;;5.00;2.50;;;10.80;98.10;;;;;;6123172;23;20447;-88
2023/11/16 07:39:02;;;;;;;3.40;2.20;;;10.60;98.40;;;;;;6184818;22;20414;-86
2023/11/16 07:42:09;;;;;;;7.40;2.37;;;10.60;98.30;;;;;;6069579;23;20452;-88
2023/11/16 07:49:06;;;;;;;3.80;1.97;;;10.50;98.90;;;;;;5996568;23;20504;-88
2023/11/16 07:52:47;;;;;;;3.50;2.03;;;10.40;99.00;;;;;;5905406;24;20463;-86
2023/11/16 07:56:30;;;;;;;;;;;;;;;;;;;;;
2023/11/16 08:18:46;;;;;;;;;;;;;;;;;;;;;
2023/11/16 08:25:02;;;;;;;3.63;2.20;;;10.60;98.20;;;;;;6193322;23;20773;-86
2023/11/16 08:28:52;;;;;;;5.13;2.50;;;10.70;98.10;;;;;;6130390;23;20473;-87
2023/11/16 08:36:16;;;;;;;5.60;2.50;;;10.80;98.00;;;;;;6203256;23;20422;-88
2023/11/16 08:46:42;;;;;;;;;;;;;;;;;;;;;
2023/11/16 08:50:06;;;;;;;5.70;2.27;;;10.60;97.90;;;;;;6199866;23;20410;-87
2023/11/16 08:53:53;;;;;;;;;;;;;;;;;;;;;
2023/11/16 09:05:27;;;;;;;8.03;3.60;;;10.80;98.50;;;;;;6284880;22;20427;-85
2023/11/16 09:08:28;;;;;;;3.50;2.50;;;10.80;98.10;;;;;;6245042;23;21114;-86
2023/11/16 09:16:32;;;;;;;;;;;;;;;;;;;;;
2023/11/16 09:30:54;;;;;;;3.50;2.60;;;11.30;97.40;;;;;;6052159;23;20397;-87
2023/11/16 09:37:41;;;;;;;;;;;;;;;;;;;;;
2023/11/16 09:41:30;;;;;;;6.30;3.30;;;11.20;97.30;;;;;;6081389;23;20396;-86
2023/11/16 09:44:38;;;;;;;3.23;2.57;;;11.30;97.20;;;;;;6088203;23;20426;-88
2023/11/16 09:47:36;;;;;;;;;;;;;;;;;;;;;
2023/11/16 09:58:28;;;;;;;5.77;2.57;;;11.00;98.10;;;;;;6241941;23;20392;-87
2023/11/16 10:01:32;;;;;;;6.30;2.50;;;10.90;98.30;;;;;;6226378;23;20405;-87
2023/11/16 10:04:54;;;;;;;;;;;;;;;;;;;;;
2023/11/16 10:07:51;;;;;;;3.40;2.10;;;11.20;98.50;;;;;;6107955;23;20417;-89
2023/11/16 10:23:38;;;;;;;4.67;2.83;;;10.90;98.60;;;;;;5992427;23;20487;-85
2023/11/16 10:27:23;;;;;;;;;;;;;;;;;;;;;
2023/11/16 10:34:12;;;;;;;3.57;2.27;;;10.60;99.20;;;;;;6028756;23;21017;-87
2023/11/16 10:45:26;;;;;;;4.70;2.60;;;10.90;99.10;;;;;;6045808;23;21097;-87
2023/11/16 10:52:31;;;;;;;;;;;;;;;;;;;;;
2023/11/16 10:55:55;;;;;;;3.70;2.50;;;10.90;99.20;;;;;;6100359;23;20415;-89
2023/11/16 11:02:48;;;;;;;7.53;2.80;;;10.80;99.30;;;;;;5955685;24;20427;-88
2023/11/16 11:09:36;;;;;;;7.87;2.70;;;10.80;99.60;;;;;;5958274;24;20465;-88
2023/11/16 11:12:49;;;;;;;4.43;2.60;;;10.80;99.50;;;;;;5904024;24;20462;-86
2023/11/16 11:20:19;;;;;;;3.33;2.80;;;11.10;98.70;;;;;;5925857;24;20494;-86
2023/11/16 11:24:00;;;;;;;8.00;2.70;;;11.10;98.60;;;;;;5909250;24;20541;-86
2023/11/16 11:26:57;;;;;;;4.43;2.73;;;11.20;98.60;;;;;;5928839;24;20446;-86
2023/11/16 11:34:29;;;;;;;3.30;1.97;;;11.10;98.90;;;;;;5914821;24;20459;-86
2023/11/16 11:40:57;;;;;;;2.90;2.00;;;11.00;98.90;;;;;;6178065;23;20420;-86
2023/11/16 11:51:26;;;;;;;;;;;;;;;;;;;;;
2023/11/16 11:55:22;;;;;;;5.30;2.10;;;10.90;99.40;;;;;;6170785;23;21368;-87
2023/11/16 11:58:13;;;;;;;5.30;2.50;;;10.90;99.30;;;;;;6135062;23;20518;-86
2023/11/16 12:01:32;;;;;;;2.30;2.10;;;10.80;99.50;;;;;;6121471;23;20992;-86
2023/11/16 12:04:52;;;;;;;5.70;2.80;;;10.80;99.70;;;;;;6115040;23;20416;-85
2023/11/16 12:17:14;;;;;;;9.10;3.93;;;10.90;99.90;;;;;;6251562;22;20466;-86
2023/11/16 12:20:01;;;;;;;7.03;3.67;;;10.90;99.90;;;;;;6105385;23;20724;-85
2023/11/16 12:30:31;;;;;;;6.03;3.03;;;10.90;99.70;;;;;;5954652;24;20437;-86
2023/11/16 12:33:43;;;;;;;8.93;2.73;;;10.90;99.90;;;;;;5983133;24;20463;-88
2023/11/16 12:40:49;;;;;;;6.70;2.40;;;11.00;99.80;;;;;;5942020;23;20559;-86
2023/11/16 12:44:00;;;;;;;;;;;;;;;;;;;;;
2023/11/16 12:47:41;;;;;;;;;;;;;;;;;;;;;
2023/11/16 12:50:52;;;;;;;5.50;2.43;;;10.90;99.90;;;;;;6130051;23;20718;-86
2023/11/16 12:59:14;;;;;;;3.80;1.67;;;10.80;99.60;;;;;;6229991;22;20452;-86
2023/11/16 13:08:53;;;;;;;4.57;1.97;;;11.00;99.40;;;;;;6232690;23;20409;-85
2023/11/16 13:39:07;;;;;;;3.33;2.07;;;11.00;99.50;;;;;;6098661;23;20431;-85
2023/11/16 13:42:12;;;;;;;4.17;2.30;;;10.90;99.50;;;;;;6217565;23;20416;-85
2023/11/16 13:45:24;;;;;;;4.43;2.07;;;11.00;99.60;;;;;;6239491;23;20392;-87
2023/11/16 13:54:30;;;;;;;8.03;2.40;;;11.00;99.30;;;;;;6261517;23;20427;-86
2023/11/16 13:57:31;;;;;;;;;;;;;;;;;;;;;
2023/11/16 14:23:43;;;;;;;8.60;3.03;;;10.80;99.90;;;;;;6239597;22;20385;-87
2023/11/16 14:26:38;;;;;;;5.00;2.60;;;10.90;99.90;;;;;;6207767;23;20456;-85
2023/11/16 14:29:34;;;;;;;8.67;2.40;;;10.80;99.90;;;;;;6228213;23;20413;-84
2023/11/16 14:32:15;;;;;;;5.00;2.30;;;11.00;99.90;;;;;;6231538;23;20427;-85
2023/11/16 14:35:32;;;;;;;4.30;2.30;;;11.10;99.90;;;;;;6211371;23;20379;-84
2023/11/16 14:45:50;;;;;;;6.20;2.90;;;10.90;99.90;;;;;;6135405;23;20415;-83
2023/11/16 15:00:24;;;;;;;;;;;;;;;;;;;;;
2023/11/16 15:03:48;;;;;;;7.63;3.90;;;10.90;99.90;;;;;;6026137;23;20551;-86
2023/11/16 15:22:10;;;;;;;;;;;;;;;;;;;;;
2023/11/16 15:33:48;;;;;;;;;;;;;;;;;;;;;
2023/11/16 15:37:03;;;;;;;3.50;2.30;;;11.10;99.90;;;;;;6164400;23;20407;-85
2023/11/16 15:46:09;;;;;;;4.97;2.90;;;11.30;99.70;;;;;;6257460;22;20419;-88
2023/11/16 15:48:48;;;;;;;9.03;3.77;;;11.20;99.70;;;;;;6255962;23;20463;-86
2023/11/16 15:52:05;;;;;;;4.60;3.37;;;11.10;99.90;;;;;;6253498;22;20455;-84
2023/11/16 15:55:07;;;;;;;3.53;2.50;;;11.30;99.90;;;;;;6236705;23;20411;-86
2023/11/16 15:58:50;;;;;;;6.23;3.03;;;11.10;99.90;;;;;;6252355;22;20447;-83
2023/11/16 16:01:58;;;;;;;4.93;2.50;;;11.20;99.90;;;;;;6162238;23;20415;-84
2023/11/16 16:05:07;;;;;;;6.20;3.50;;;11.10;99.90;;;;;;6123842;23;20536;-86
2023/11/16 16:08:17;;;;;;;6.57;2.87;;;11.00;99.90;;;;;;6155267;23;20467;-83
2023/11/16 16:11:24;;;;;;;7.77;3.30;;;10.90;99.90;;;;;;6210632;23;20407;-82
2023/11/16 16:22:42;;;;;;;;;;;;;;;;;;;;;
2023/11/16 16:25:32;;;;;;;10.27;4.70;;;11.00;99.90;;;;;;6248871;23;20411;-86
2023/11/16 16:29:04;;;;;;;5.67;2.90;;;11.00;99.80;;;;;;6198908;23;20384;-87
2023/11/16 16:31:54;;;;;;;8.60;3.97;;;10.90;99.60;;;;;;6195804;23;20472;-83
2023/11/16 16:35:08;;;;;;;4.87;3.17;;;10.90;99.60;;;;;;6212552;23;20415;-87
2023/11/16 16:37:52;;;;;;;5.37;3.17;;;10.80;99.80;;;;;;6235138;22;20425;-86
2023/11/16 16:40:32;;;;;;;5.63;3.20;;;10.80;99.90;;;;;;6239662;23;20423;-86
2023/11/16 16:43:35;;;;;;;3.87;2.83;;;10.60;99.90;;;;;;6215294;23;20403;-86
2023/11/16 16:47:06;;;;;;;6.93;2.63;;;10.60;99.90;;;;;;6219058;23;21037;-86
2023/11/16 16:50:22;;;;;;;6.77;3.53;;;10.70;99.90;;;;;;6134967;23;20560;-84
2023/11/16 16:53:03;;;;;;;4.20;2.87;;;10.80;99.90;;;;;;6182055;23;20448;-87
2023/11/16 16:56:09;;;;;;;7.17;3.50;;;10.80;99.90;;;;;;6243377;23;20393;-83
2023/11/16 16:59:11;;;;;;;5.77;3.27;;;10.90;99.90;;;;;;6221482;23;20428;-87
2023/11/16 17:01:52;;;;;;;8.90;3.53;;;10.90;99.80;;;;;;6198652;23;20431;-85
2023/11/16 17:04:29;;;;;;;4.97;3.10;;;11.00;99.80;;;;;;6244772;23;20407;-83
2023/11/16 17:07:18;;;;;;;4.03;3.13;;;10.90;99.80;;;;;;6225417;23;20472;-83
2023/11/16 17:10:42;;;;;;;9.60;3.30;;;11.10;99.50;;;;;;6228082;23;20412;-88
2023/11/16 17:14:10;;;;;;;7.07;3.10;;;11.00;99.40;;;;;;6151093;23;20449;-86
2023/11/16 17:16:51;;;;;;;7.83;3.90;;;11.00;99.30;;;;;;6196166;23;20440;-84
2023/11/16 17:20:11;;;;;;;10.13;4.50;;;10.90;99.40;;;;;;6215526;23;20416;-83
2023/11/16 17:22:54;;;;;;;6.80;3.47;;;10.80;99.60;;;;;;6216533;23;20441;-85
2023/11/16 17:25:27;;;;;;;4.00;2.97;;;10.70;99.80;;;;;;6242584;23;20401;-83
2023/11/16 17:28:17;;;;;;;5.73;3.17;;;10.80;99.90;;;;;;6194464;23;20433;-84
2023/11/16 17:31:00;;;;;;;5.53;3.70;;;10.80;99.90;;;;;;6226342;23;20413;-84
2023/11/16 17:33:55;;;;;;;7.20;3.50;;;10.90;99.90;;;;;;6223257;23;20428;-86
2023/11/16 17:36:49;;;;;;;7.43;4.03;;;10.80;99.90;;;;;;6221651;23;20667;-84
2023/11/16 17:39:38;;;;;;;5.60;3.60;;;10.60;99.90;;;;;;6197709;23;20412;-84
2023/11/16 17:42:42;;;;;;;;;;;;;;;;;;;;;
2023/11/16 17:45:23;;;;;;;8.43;3.20;;;10.90;99.90;;;;;;6225701;23;20421;-83
2023/11/16 17:48:09;;;;;;;4.27;3.10;;;10.80;99.90;;;;;;6223623;23;20431;-83
2023/11/16 17:51:31;;;;;;;8.37;3.23;;;10.70;99.90;;;;;;6229593;23;20419;-85
2023/11/16 17:54:35;;;;;;;6.10;4.00;;;10.80;99.90;;;;;;6228836;23;20406;-85
2023/11/16 17:57:23;;;;;;;4.80;3.00;;;10.70;99.90;;;;;;6233835;23;20438;-83
2023/11/16 18:00:25;;;;;;;;;;;;;;;;;;;;;
2023/11/16 18:03:15;;;;;;;7.00;4.07;;;11.10;99.90;;;;;;6188874;23;20416;-83
2023/11/16 18:06:13;;;;;;;;;;;;;;;;;;;;;
2023/11/16 18:08:47;;;;;;;5.90;3.50;;;10.90;99.20;;;;;;6225123;23;20419;-84
2023/11/16 18:12:24;;;;;;;7.47;4.23;;;10.80;99.40;;;;;;6206270;23;20408;-84
2023/11/16 18:29:47;;;;;;;8.77;4.13;;;10.70;99.90;;;;;;6259002;22;20435;-85
2023/11/16 18:41:49;;;;;;;7.43;4.37;;;11.20;99.40;;;;;;6254442;23;20424;-83
2023/11/16 18:44:53;;;;;;;5.63;3.43;;;11.20;98.70;;;;;;6221098;23;20438;-84
2023/11/16 18:48:08;;;;;;;;;;;;;;;;;;;;;
2023/11/16 18:51:14;;;;;;;7.27;3.63;;;11.20;98.90;;;;;;6075767;23;20465;-85
2023/11/16 18:54:07;;;;;;;5.70;3.40;;;11.20;98.80;;;;;;6055169;23;20445;-86
2023/11/16 19:00:52;;;;;;;5.77;3.43;;;11.20;99.20;;;;;;6048297;23;20517;-85
2023/11/16 19:03:56;;;;;;;5.20;3.83;;;11.30;99.00;;;;;;6007362;23;20434;-85
2023/11/16 19:10:56;;;;;;;8.63;4.60;;;11.10;99.10;;;;;;5979766;23;20404;-84
2023/11/16 19:21:43;;;;;;;;;;;;;;;;;;;;;
2023/11/16 19:24:50;;;;;;;5.37;3.60;;;10.80;99.60;;;;;;6198860;22;20463;-83
2023/11/16 19:41:20;;;;;;;7.17;4.03;;;10.80;99.80;;;;;;6161844;23;20407;-84
2023/11/16 19:44:43;;;;;;;6.57;4.43;;;11.00;99.30;;;;;;6254589;23;20379;-86
2023/11/16 19:48:29;;;;;;;;;;;;;;;;;;;;;
2023/11/16 19:55:34;;;;;;;7.43;6.00;;;10.50;99.70;;;;;;6165691;23;20434;-85
2023/11/16 19:59:17;;;;;;;;;;;;;;;;;;;;;
2023/11/16 20:02:51;;;;;;;8.43;6.00;;;10.80;99.80;;;;;;6174426;23;20410;-86
2023/11/16 20:06:23;;;;;;;10.33;6.30;;;10.70;99.70;;;;;;6121128;23;20408;-84
2023/11/16 20:10:29;;;;;;;;;;;;;;;;;;;;;
2023/11/16 20:14:03;;;;;;;;;;;;;;;;;;;;;
2023/11/16 20:23:08;;;;;;;;;;;;;;;;;;;;;
2023/11/16 20:32:43;;;;;;;9.23;6.53;;;10.30;99.90;;;;;;6188017;23;20445;-86
2023/11/16 20:40:17;;;;;;;;;;;;;;;;;;;;;
2023/11/16 20:43:17;;;;;;;10.13;8.77;;;10.50;99.90;;;;;;6220888;23;20416;-85
2023/11/16 20:46:33;;;;;;;10.93;8.03;;;10.50;99.90;;;;;;6172173;23;20404;-83
2023/11/16 20:49:37;;;;;;;12.43;8.10;;;10.40;99.90;;;;;;6177113;23;20420;-85
2023/11/16 20:52:43;;;;;;;12.80;8.40;;;10.30;99.90;;;;;;6154098;23;20545;-85
2023/11/16 20:55:44;;;;;;;12.27;7.90;;;10.30;99.90;;;;;;6168675;23;20406;-84
2023/11/16 20:59:21;;;;;;;9.30;8.10;;;10.60;99.90;;;;;;6160151;23;20405;-84
2023/11/16 21:02:11;;;;;;;12.73;8.20;;;10.50;99.90;;;;;;6075995;23;20374;-86
2023/11/16 21:05:09;;;;;;;12.50;8.97;;;10.30;99.90;;;;;;6046347;23;20422;-84
2023/11/16 21:13:54;;;;;;;13.50;8.00;;;10.30;99.90;;;;;;6255397;22;20463;-85
2023/11/16 21:17:19;;;;;;;9.60;7.67;;;10.30;99.90;;;;;;6230764;22;20424;-85
2023/11/16 21:20:30;;;;;;;10.93;8.60;;;10.30;99.90;;;;;;6258748;23;20388;-87
2023/11/16 21:23:29;;;;;;;10.23;8.27;;;10.30;99.90;;;;;;6255762;22;20396;-85
2023/11/16 21:26:54;;;;;;;11.40;8.30;;;10.20;99.90;;;;;;6249499;22;20427;-85
2023/11/16 21:30:15;;;;;;;11.00;8.40;;;10.40;99.90;;;;;;6228223;22;20448;-85
2023/11/16 21:33:10;;;;;;;9.63;7.33;;;10.30;99.90;;;;;;6216313;23;20443;-85
2023/11/16 21:39:22;;;;;;;9.43;8.20;;;10.30;99.90;;;;;;6252842;22;20454;-85
2023/11/16 21:42:08;;;;;;;11.10;7.80;;;10.30;99.90;;;;;;6251043;23;20443;-83
2023/11/16 21:45:13;;;;;;;11.47;7.53;;;10.30;99.90;;;;;;6249160;23;20471;-85
2023/11/16 21:48:19;;;;;;;11.30;9.40;;;10.30;99.90;;;;;;6191907;23;20616;-86
2023/11/16 21:51:21;;;;;;;11.70;8.53;;;10.30;99.90;;;;;;6125102;23;21009;-83
2023/11/16 21:54:21;;;;;;;9.53;8.30;;;10.30;99.90;;;;;;6164827;23;20451;-86
2023/11/16 21:57:20;;;;;;;14.70;9.00;;;10.30;99.90;;;;;;6188804;23;20486;-87
2023/11/16 22:00:27;;;;;;;15.80;10.30;;;10.40;99.90;;;;;;6164094;23;20406;-86
2023/11/16 22:03:50;;;;;;;14.57;9.90;;;10.30;99.90;;;;;;6121004;23;20390;-86
2023/11/16 22:06:45;;;;;;;12.63;9.13;;;10.40;99.90;;;;;;6160124;23;20477;-87
2023/11/16 22:09:38;;;;;;;13.77;10.97;;;10.50;99.90;;;;;;6175747;23;20410;-86
2023/11/16 22:12:27;;;;;;;13.17;9.90;;;10.40;99.90;;;;;;6193699;23;20458;-88
2023/11/16 22:15:24;;;;;;;16.03;10.67;;;10.40;99.90;;;;;;6102168;23;20432;-86
2023/11/16 22:18:16;;;;;;;15.73;10.23;;;10.40;99.90;;;;;;6142985;23;20805;-84
2023/11/16 22:21:16;;;;;;;16.90;12.50;;;10.30;99.90;;;;;;6115090;23;20406;-86
2023/11/16 22:26:57;;;;;;;16.53;11.40;;;10.60;99.90;;;;;;6156510;23;20833;-84
2023/11/16 22:29:34;;;;;;;19.17;10.50;;;10.80;99.90;;;;;;6142971;23;20394;-86
2023/11/16 22:32:26;;;;;;;13.50;9.77;;;10.60;99.90;;;;;;6161464;23;20394;-85
2023/11/16 22:35:04;;;;;;;14.23;10.53;;;10.50;99.90;;;;;;6173996;23;20410;-86
2023/11/16 22:37:35;;;;;;;17.30;11.10;;;10.50;99.90;;;;;;6168254;23;20426;-84
2023/11/16 22:40:19;;;;;;;18.90;10.97;;;10.40;99.90;;;;;;6137948;23;20449;-85
2023/11/16 22:43:25;;;;;;;14.27;10.27;;;10.60;99.90;;;;;;6146614;23;20479;-85
2023/11/16 22:46:08;;;;;;;16.70;10.87;;;10.40;99.90;;;;;;6153766;23;20581;-84
2023/11/16 22:48:45;;;;;;;17.70;11.10;;;10.60;99.90;;;;;;6143140;23;20433;-85
2023/11/16 22:51:45;;;;;;;13.87;10.07;;;10.70;99.90;;;;;;6177871;23;20429;-84
2023/11/16 22:54:49;;;;;;;13.80;11.10;;;10.60;99.90;;;;;;6264642;22;20432;-86
2023/11/16 22:57:48;;;;;;;14.80;10.10;;;10.40;99.90;;;;;;6250417;22;20432;-86
2023/11/16 23:00:50;;;;;;;14.67;10.50;;;10.30;99.90;;;;;;6251520;23;20522;-84
2023/11/16 23:03:43;;;;;;;14.57;9.53;;;10.20;99.90;;;;;;6261034;22;20392;-86
2023/11/16 23:06:22;;;;;;;13.93;10.83;;;10.10;99.90;;;;;;6257737;22;20463;-85
2023/11/16 23:09:30;;;;;;;13.80;9.73;;;10.10;99.90;;;;;;6250782;22;20468;-86
2023/11/16 23:12:13;;;;;;;15.10;10.50;;;10.10;99.90;;;;;;6228320;23;20455;-84
2023/11/16 23:15:24;;;;;;;12.27;8.80;;;10.00;99.90;;;;;;6234271;23;20388;-86
2023/11/16 23:18:07;;;;;;;15.50;9.67;;;10.00;99.90;;;;;;6248989;22;20432;-84
2023/11/16 23:21:15;;;;;;;15.33;9.63;;;9.90;99.90;;;;;;6242761;23;20403;-85
2023/11/16 23:24:31;;;;;;;14.50;10.03;;;9.90;99.90;;;;;;6207649;23;20390;-85
2023/11/16 23:27:11;;;;;;;14.03;10.30;;;9.90;99.90;;;;;;6245409;22;20430;-86
2023/11/16 23:30:04;;;;;;;14.73;9.73;;;9.80;99.90;;;;;;6246544;23;20408;-86
2023/11/16 23:33:09;;;;;;;10.87;9.77;;;9.90;99.90;;;;;;6243944;23;20564;-85
2023/11/16 23:39:24;;;;;;;14.33;10.10;;;9.80;99.90;;;;;;6036753;23;20399;-84
2023/11/16 23:42:14;;;;;;;14.97;9.10;;;9.90;99.90;;;;;;6125442;23;21011;-86
2023/11/16 23:45:08;;;;;;;17.43;10.10;;;9.90;99.90;;;;;;6151271;23;20446;-85
2023/11/16 23:47:41;;;;;;;13.33;9.80;;;9.80;99.90;;;;;;6137168;23;20486;-85
2023/11/16 23:50:48;;;;;;;12.07;8.60;;;9.80;99.90;;;;;;6101990;23;20389;-86
2023/11/16 23:53:42;;;;;;;14.23;9.37;;;9.70;99.90;;;;;;6158950;23;20514;-82
2023/11/16 23:56:35;;;;;;;11.87;9.97;;;9.70;99.90;;;;;;6156403;23;20437;-84
2023/11/16 23:59:25;;;;;;;14.33;10.60;;;9.70;99.90;;;;;;6156857;23;20403;-85
